sensor_id;sensor_type;location;lat;lon;timestamp;pressure;altitude;pressure_sealevel;temperature;humidity
8451;BME280;4262;50.980;13.892;2023-02-02T04:32:28;50618.28;;;-142.97;27.38
8451;BME280;4262;50.980;13.892;2023-02-02T04:34:55;50606.59;;;-142.97;27.16
8451;BME280;4262;50.980;13.892;2023-02-02T04:37:21;50620.25;;;-142.97;27.84
8451;BME280;4262;50.980;13.892;2023-02-02T04:39:50;50604.66;;;-142.97;26.97
8451;BME280;4262;50.980;13.892;2023-02-02T04:42:18;50581.25;;;-142.97;26.35
8451;BME280;4262;50.980;13.892;2023-02-02T04:44:44;50587.09;;;-142.97;26.94
8451;BME280;4262;50.980;13.892;2023-02-02T04:47:11;50575.41;;;-142.97;27.04
8451;BME280;4262;50.980;13.892;2023-02-02T04:49:41;50610.50;;;-142.97;29.04
8451;BME280;4262;50.980;13.892;2023-02-02T04:52:09;50614.41;;;-142.97;27.78
8451;BME280;4262;50.980;13.892;2023-02-02T04:54:36;50596.84;;;-142.97;27.72
8451;BME280;4262;50.980;13.892;2023-02-02T04:57:02;50594.91;;;-142.97;28.08
8451;BME280;4262;50.980;13.892;2023-02-02T04:59:31;50600.75;;;-142.97;28.91
8451;BME280;4262;50.980;13.892;2023-02-02T05:01:58;50589.06;;;-142.97;27.14
8451;BME280;4262;50.980;13.892;2023-02-02T05:04:25;50579.31;;;-142.97;27.52
8451;BME280;4262;50.980;13.892;2023-02-02T05:06:54;50594.91;;;-142.97;27.84
8451;BME280;4262;50.980;13.892;2023-02-02T05:09:21;50618.28;;;-142.97;28.60
8451;BME280;4262;50.980;13.892;2023-02-02T05:11:47;50592.94;;;-142.97;27.54
8451;BME280;4262;50.980;13.892;2023-02-02T05:14:14;50600.75;;;-142.97;27.91
8451;BME280;4262;50.980;13.892;2023-02-02T05:16:43;50612.44;;;-142.97;27.57
8451;BME280;4262;50.980;13.892;2023-02-02T05:19:12;50557.84;;;-142.97;27.50
8451;BME280;4262;50.980;13.892;2023-02-02T05:21:41;50565.66;;;-142.97;28.46
8451;BME280;4262;50.980;13.892;2023-02-02T05:24:10;50585.16;;;-142.97;28.28
8451;BME280;4262;50.980;13.892;2023-02-02T05:26:37;50581.25;;;-142.97;27.80
8451;BME280;4262;50.980;13.892;2023-02-02T05:29:05;50567.59;;;-142.97;28.77
8451;BME280;4262;50.980;13.892;2023-02-02T05:31:33;50616.34;;;-142.97;27.79
8451;BME280;4262;50.980;13.892;2023-02-02T05:34:00;50573.44;;;-142.97;28.69
8451;BME280;4262;50.980;13.892;2023-02-02T05:36:27;50579.31;;;-142.97;28.53
8451;BME280;4262;50.980;13.892;2023-02-02T05:38:55;50583.19;;;-142.97;27.81
8451;BME280;4262;50.980;13.892;2023-02-02T05:41:23;50585.16;;;-142.97;28.25
8451;BME280;4262;50.980;13.892;2023-02-02T05:43:50;50589.06;;;-142.97;28.92
8451;BME280;4262;50.980;13.892;2023-02-02T05:46:17;50610.50;;;-142.97;28.97
8451;BME280;4262;50.980;13.892;2023-02-02T05:48:44;50577.34;;;-142.97;27.98
8451;BME280;4262;50.980;13.892;2023-02-02T05:51:14;50567.59;;;-142.97;28.61
8451;BME280;4262;50.980;13.892;2023-02-02T05:53:42;50579.31;;;-142.97;28.79
8451;BME280;4262;50.980;13.892;2023-02-02T05:56:11;50579.31;;;-142.97;28.13
8451;BME280;4262;50.980;13.892;2023-02-02T05:58:40;50585.16;;;-142.97;28.86
8451;BME280;4262;50.980;13.892;2023-02-02T06:01:07;50602.69;;;-142.97;29.02
8451;BME280;4262;50.980;13.892;2023-02-02T06:03:34;50589.06;;;-142.97;27.96
8451;BME280;4262;50.980;13.892;2023-02-02T06:06:01;50561.75;;;-142.97;28.07
8451;BME280;4262;50.980;13.892;2023-02-02T06:08:28;50575.41;;;-142.97;28.09
8451;BME280;4262;50.980;13.892;2023-02-02T06:10:54;50598.81;;;-142.97;27.91
8451;BME280;4262;50.980;13.892;2023-02-02T06:13:21;50579.31;;;-142.97;27.28
8451;BME280;4262;50.980;13.892;2023-02-02T06:15:51;50575.41;;;-142.97;28.51
8451;BME280;4262;50.980;13.892;2023-02-02T06:18:18;50596.84;;;-142.97;28.66
8451;BME280;4262;50.980;13.892;2023-02-02T06:20:44;50563.69;;;-142.97;29.43
8451;BME280;4262;50.980;13.892;2023-02-02T06:23:12;50559.81;;;-142.97;27.96
8451;BME280;4262;50.980;13.892;2023-02-02T06:25:38;50598.81;;;-142.97;28.05
8451;BME280;4262;50.980;13.892;2023-02-02T06:28:05;50561.75;;;-142.97;28.46
8451;BME280;4262;50.980;13.892;2023-02-02T06:30:31;50583.19;;;-142.97;28.04
8451;BME280;4262;50.980;13.892;2023-02-02T06:32:59;50559.81;;;-142.97;28.51
8451;BME280;4262;50.980;13.892;2023-02-02T06:35:26;50567.59;;;-142.97;27.68
8451;BME280;4262;50.980;13.892;2023-02-02T06:37:53;50553.94;;;-142.97;28.15
8451;BME280;4262;50.980;13.892;2023-02-02T06:40:21;50577.34;;;-142.97;27.88
8451;BME280;4262;50.980;13.892;2023-02-02T06:42:54;50575.41;;;-142.97;28.00
8451;BME280;4262;50.980;13.892;2023-02-02T06:45:23;50592.94;;;-142.97;27.81
8451;BME280;4262;50.980;13.892;2023-02-02T06:47:50;50587.09;;;-142.97;28.30
8451;BME280;4262;50.980;13.892;2023-02-02T06:50:19;50563.69;;;-142.97;27.98
8451;BME280;4262;50.980;13.892;2023-02-02T06:52:46;50573.44;;;-142.97;27.39
8451;BME280;4262;50.980;13.892;2023-02-02T06:55:14;50577.34;;;-142.97;27.49
8451;BME280;4262;50.980;13.892;2023-02-02T06:57:41;50559.81;;;-142.97;27.15
8451;BME280;4262;50.980;13.892;2023-02-02T07:00:10;50548.09;;;-142.97;28.14
8451;BME280;4262;50.980;13.892;2023-02-02T07:02:38;50579.31;;;-142.97;27.57
8451;BME280;4262;50.980;13.892;2023-02-02T07:05:05;50602.69;;;-142.97;27.50
8451;BME280;4262;50.980;13.892;2023-02-02T07:07:34;50587.09;;;-142.97;27.11
8451;BME280;4262;50.980;13.892;2023-02-02T07:10:02;50569.56;;;-142.97;26.68
8451;BME280;4262;50.980;13.892;2023-02-02T07:12:29;50565.66;;;-142.97;27.23
8451;BME280;4262;50.980;13.892;2023-02-02T07:14:57;50585.16;;;-142.97;26.73
8451;BME280;4262;50.980;13.892;2023-02-02T07:17:24;50583.19;;;-142.97;26.29
8451;BME280;4262;50.980;13.892;2023-02-02T07:19:52;50592.94;;;-142.97;27.44
8451;BME280;4262;50.980;13.892;2023-02-02T07:22:19;50591.00;;;-142.97;27.95
8451;BME280;4262;50.980;13.892;2023-02-02T07:24:47;50536.41;;;-142.97;28.95
8451;BME280;4262;50.980;13.892;2023-02-02T07:27:14;50567.59;;;-142.97;28.10
8451;BME280;4262;50.980;13.892;2023-02-02T07:29:42;50553.94;;;-142.97;27.17
8451;BME280;4262;50.980;13.892;2023-02-02T07:32:09;50573.44;;;-142.97;27.36
8451;BME280;4262;50.980;13.892;2023-02-02T07:34:37;50592.94;;;-142.97;28.10
8451;BME280;4262;50.980;13.892;2023-02-02T07:37:04;50587.09;;;-142.97;28.46
8451;BME280;4262;50.980;13.892;2023-02-02T07:39:32;50563.69;;;-142.97;27.97
8451;BME280;4262;50.980;13.892;2023-02-02T07:42:00;50571.50;;;-142.97;26.46
8451;BME280;4262;50.980;13.892;2023-02-02T07:44:34;50577.34;;;-142.97;27.84
8451;BME280;4262;50.980;13.892;2023-02-02T07:47:01;50569.56;;;-142.97;28.83
8451;BME280;4262;50.980;13.892;2023-02-02T07:49:27;50602.69;;;-142.97;28.57
8451;BME280;4262;50.980;13.892;2023-02-02T07:51:54;50555.91;;;-142.97;27.45
8451;BME280;4262;50.980;13.892;2023-02-02T07:54:21;50561.75;;;-142.97;28.32
8451;BME280;4262;50.980;13.892;2023-02-02T07:56:48;50583.19;;;-142.97;27.86
8451;BME280;4262;50.980;13.892;2023-02-02T07:59:17;50567.59;;;-142.97;27.35
8451;BME280;4262;50.980;13.892;2023-02-02T08:01:44;50532.50;;;-142.97;28.14
8451;BME280;4262;50.980;13.892;2023-02-02T08:04:11;50571.50;;;-142.97;28.21
8451;BME280;4262;50.980;13.892;2023-02-02T08:06:39;50553.94;;;-142.97;27.83
8451;BME280;4262;50.980;13.892;2023-02-02T08:09:07;50587.09;;;-142.97;26.76
8451;BME280;4262;50.980;13.892;2023-02-02T08:11:35;50575.41;;;-142.97;26.39
8451;BME280;4262;50.980;13.892;2023-02-02T08:14:02;50559.81;;;-142.97;27.57
8451;BME280;4262;50.980;13.892;2023-02-02T08:16:33;50542.25;;;-142.97;27.60
8451;BME280;4262;50.980;13.892;2023-02-02T08:19:00;50540.31;;;-142.97;26.67
8451;BME280;4262;50.980;13.892;2023-02-02T08:21:27;50573.44;;;-142.97;27.23
8451;BME280;4262;50.980;13.892;2023-02-02T08:23:54;50557.84;;;-142.97;27.52
8451;BME280;4262;50.980;13.892;2023-02-02T08:26:22;50561.75;;;-142.97;28.56
8451;BME280;4262;50.980;13.892;2023-02-02T08:28:52;50571.50;;;-142.97;28.80
8451;BME280;4262;50.980;13.892;2023-02-02T08:31:21;50528.59;;;-142.97;27.79
8451;BME280;4262;50.980;13.892;2023-02-02T08:33:50;50536.41;;;-142.97;28.67
8451;BME280;4262;50.980;13.892;2023-02-02T08:36:20;50583.19;;;-142.97;28.37
8451;BME280;4262;50.980;13.892;2023-02-02T08:38:48;50563.69;;;-142.97;29.09
8451;BME280;4262;50.980;13.892;2023-02-02T08:41:17;50569.56;;;-142.97;28.23
8451;BME280;4262;50.980;13.892;2023-02-02T08:43:45;50573.44;;;-142.97;27.90
8451;BME280;4262;50.980;13.892;2023-02-02T08:46:14;50552.00;;;-142.97;28.49
8451;BME280;4262;50.980;13.892;2023-02-02T08:48:41;50553.94;;;-142.97;28.22
8451;BME280;4262;50.980;13.892;2023-02-02T08:51:11;50575.41;;;-142.97;27.69
8451;BME280;4262;50.980;13.892;2023-02-02T08:53:39;50563.69;;;-142.97;27.73
8451;BME280;4262;50.980;13.892;2023-02-02T08:56:09;50561.75;;;-142.97;27.47
8451;BME280;4262;50.980;13.892;2023-02-02T08:58:38;50569.56;;;-142.97;28.89
8451;BME280;4262;50.980;13.892;2023-02-02T09:01:06;50583.19;;;-142.97;27.45
8451;BME280;4262;50.980;13.892;2023-02-02T09:03:33;50513.00;;;-142.97;27.07
8451;BME280;4262;50.980;13.892;2023-02-02T09:06:04;50583.19;;;-142.97;28.26
8451;BME280;4262;50.980;13.892;2023-02-02T09:08:33;50526.66;;;-142.97;26.93
8451;BME280;4262;50.980;13.892;2023-02-02T09:11:05;50575.41;;;-142.97;28.48
8451;BME280;4262;50.980;13.892;2023-02-02T09:13:34;50579.31;;;-142.97;26.99
8451;BME280;4262;50.980;13.892;2023-02-02T09:16:04;50559.81;;;-142.97;28.05
8451;BME280;4262;50.980;13.892;2023-02-02T09:18:31;50557.84;;;-142.97;27.46
8451;BME280;4262;50.980;13.892;2023-02-02T09:20:58;50561.75;;;-142.97;28.36
8451;BME280;4262;50.980;13.892;2023-02-02T09:23:28;50573.44;;;-142.97;28.97
8451;BME280;4262;50.980;13.892;2023-02-02T09:25:57;50571.50;;;-142.97;29.72
8451;BME280;4262;50.980;13.892;2023-02-02T09:28:24;50548.09;;;-142.97;28.08
8451;BME280;4262;50.980;13.892;2023-02-02T09:30:50;50583.19;;;-142.97;28.30
8451;BME280;4262;50.980;13.892;2023-02-02T09:33:17;50563.69;;;-142.97;26.99
8451;BME280;4262;50.980;13.892;2023-02-02T09:35:44;50544.19;;;-142.97;27.34
8451;BME280;4262;50.980;13.892;2023-02-02T09:38:11;50540.31;;;-142.97;28.48
8451;BME280;4262;50.980;13.892;2023-02-02T09:40:39;50552.00;;;-142.97;28.05
8451;BME280;4262;50.980;13.892;2023-02-02T09:43:21;50540.31;;;-142.97;29.10
8451;BME280;4262;50.980;13.892;2023-02-02T09:46:00;50514.97;;;-142.97;28.80
8451;BME280;4262;50.980;13.892;2023-02-02T09:48:39;50563.69;;;-142.97;28.03
8451;BME280;4262;50.980;13.892;2023-02-02T09:51:12;50530.56;;;-142.97;28.15
8451;BME280;4262;50.980;13.892;2023-02-02T09:53:46;50520.81;;;-142.97;27.96
8451;BME280;4262;50.980;13.892;2023-02-02T09:56:20;50522.75;;;-142.97;27.60
8451;BME280;4262;50.980;13.892;2023-02-02T09:58:53;50526.66;;;-142.97;27.33
8451;BME280;4262;50.980;13.892;2023-02-02T10:01:23;50544.19;;;-142.97;27.89
8451;BME280;4262;50.980;13.892;2023-02-02T10:03:57;50544.19;;;-142.97;27.74
8451;BME280;4262;50.980;13.892;2023-02-02T10:06:32;50511.06;;;-142.97;28.39
8451;BME280;4262;50.980;13.892;2023-02-02T10:09:07;50503.25;;;-142.97;27.62
8451;BME280;4262;50.980;13.892;2023-02-02T10:11:43;50530.56;;;-142.97;28.63
8451;BME280;4262;50.980;13.892;2023-02-02T10:14:18;50530.56;;;-142.97;27.58
8451;BME280;4262;50.980;13.892;2023-02-02T10:16:48;50548.09;;;-142.97;28.14
8451;BME280;4262;50.980;13.892;2023-02-02T10:19:17;50540.31;;;-142.97;27.52
8451;BME280;4262;50.980;13.892;2023-02-02T10:21:47;50493.50;;;-142.97;28.46
8451;BME280;4262;50.980;13.892;2023-02-02T10:24:19;50536.41;;;-142.97;26.91
8451;BME280;4262;50.980;13.892;2023-02-02T10:26:47;50552.00;;;-142.97;26.42
8451;BME280;4262;50.980;13.892;2023-02-02T10:29:30;50544.19;;;-142.97;27.87
8451;BME280;4262;50.980;13.892;2023-02-02T10:32:05;50553.94;;;-142.97;27.50
8451;BME280;4262;50.980;13.892;2023-02-02T10:34:40;50546.16;;;-142.97;26.94
8451;BME280;4262;50.980;13.892;2023-02-02T10:37:21;50553.94;;;-142.97;27.76
8451;BME280;4262;50.980;13.892;2023-02-02T10:40:04;50548.09;;;-142.97;28.03
8451;BME280;4262;50.980;13.892;2023-02-02T10:42:43;50548.09;;;-142.97;28.37
8451;BME280;4262;50.980;13.892;2023-02-02T10:45:38;50559.81;;;-142.97;27.89
8451;BME280;4262;50.980;13.892;2023-02-02T10:48:13;50548.09;;;-142.97;27.88
8451;BME280;4262;50.980;13.892;2023-02-02T10:50:42;50544.19;;;-142.97;29.02
8451;BME280;4262;50.980;13.892;2023-02-02T10:53:13;50538.34;;;-142.97;27.53
8451;BME280;4262;50.980;13.892;2023-02-02T10:55:44;50540.31;;;-142.97;28.08
8451;BME280;4262;50.980;13.892;2023-02-02T10:58:21;50550.06;;;-142.97;28.57
8451;BME280;4262;50.980;13.892;2023-02-02T11:00:52;50550.06;;;-142.97;27.79
8451;BME280;4262;50.980;13.892;2023-02-02T11:03:22;50505.22;;;-142.97;27.43
8451;BME280;4262;50.980;13.892;2023-02-02T11:05:51;50542.25;;;-142.97;27.79
8451;BME280;4262;50.980;13.892;2023-02-02T11:08:38;50524.72;;;-142.97;27.48
8451;BME280;4262;50.980;13.892;2023-02-02T11:11:11;50514.97;;;-142.97;27.19
8451;BME280;4262;50.980;13.892;2023-02-02T11:13:42;50567.59;;;-142.97;27.06
8451;BME280;4262;50.980;13.892;2023-02-02T11:16:20;50509.09;;;-142.97;26.88
8451;BME280;4262;50.980;13.892;2023-02-02T11:18:47;50536.41;;;-142.97;27.08
8451;BME280;4262;50.980;13.892;2023-02-02T11:21:17;50536.41;;;-142.97;26.63
8451;BME280;4262;50.980;13.892;2023-02-02T11:23:53;50513.00;;;-142.97;26.33
8451;BME280;4262;50.980;13.892;2023-02-02T11:26:21;50520.81;;;-142.97;27.71
8451;BME280;4262;50.980;13.892;2023-02-02T11:28:51;50505.22;;;-142.97;27.59
8451;BME280;4262;50.980;13.892;2023-02-02T11:31:31;50511.06;;;-142.97;27.73
8451;BME280;4262;50.980;13.892;2023-02-02T11:34:13;50518.84;;;-142.97;27.45
8451;BME280;4262;50.980;13.892;2023-02-02T11:36:57;50511.06;;;-142.97;28.63
8451;BME280;4262;50.980;13.892;2023-02-02T11:39:24;50538.34;;;-142.97;27.87
8451;BME280;4262;50.980;13.892;2023-02-02T11:41:58;50534.47;;;-142.97;27.97
8451;BME280;4262;50.980;13.892;2023-02-02T11:44:28;50505.22;;;-142.97;27.35
8451;BME280;4262;50.980;13.892;2023-02-02T11:46:59;50550.06;;;-142.97;28.51
8451;BME280;4262;50.980;13.892;2023-02-02T11:49:26;50481.81;;;-142.97;27.82
8451;BME280;4262;50.980;13.892;2023-02-02T11:51:56;50485.72;;;-142.97;28.69
8451;BME280;4262;50.980;13.892;2023-02-02T11:54:27;50491.56;;;-142.97;27.39
8451;BME280;4262;50.980;13.892;2023-02-02T11:56:57;50503.25;;;-142.97;28.20
8451;BME280;4262;50.980;13.892;2023-02-02T11:59:30;50495.47;;;-142.97;27.58
8451;BME280;4262;50.980;13.892;2023-02-02T12:02:21;50522.75;;;-142.97;27.16
8451;BME280;4262;50.980;13.892;2023-02-02T12:04:49;50481.81;;;-142.97;29.07
8451;BME280;4262;50.980;13.892;2023-02-02T12:07:20;50474.00;;;-142.97;28.15
8451;BME280;4262;50.980;13.892;2023-02-02T12:09:48;50528.59;;;-142.97;28.28
8451;BME280;4262;50.980;13.892;2023-02-02T12:12:26;50477.91;;;-142.97;26.78
8451;BME280;4262;50.980;13.892;2023-02-02T12:15:01;50458.41;;;-142.97;27.29
8451;BME280;4262;50.980;13.892;2023-02-02T12:17:36;50234.19;;;-142.97;27.57
8451;BME280;4262;50.980;13.892;2023-02-02T12:20:20;50409.66;;;-142.97;27.37
8451;BME280;4262;50.980;13.892;2023-02-02T12:23:09;50271.25;;;-142.97;27.21
8451;BME280;4262;50.980;13.892;2023-02-02T12:25:47;50269.28;;;-142.97;27.91
8451;BME280;4262;50.980;13.892;2023-02-02T12:28:28;50255.66;;;-142.97;26.27
8451;BME280;4262;50.980;13.892;2023-02-02T12:31:06;50442.81;;;-142.97;26.81
8451;BME280;4262;50.980;13.892;2023-02-02T12:33:40;50456.47;;;-142.97;27.20
8451;BME280;4262;50.980;13.892;2023-02-02T12:36:22;50483.75;;;-142.97;27.34
8451;BME280;4262;50.980;13.892;2023-02-02T12:39:09;50438.91;;;-142.97;27.11
8451;BME280;4262;50.980;13.892;2023-02-02T12:42:00;50501.31;;;-142.97;26.15
8451;BME280;4262;50.980;13.892;2023-02-02T12:44:40;50509.09;;;-142.97;26.77
8451;BME280;4262;50.980;13.892;2023-02-02T12:47:17;50462.31;;;-142.97;26.86
8451;BME280;4262;50.980;13.892;2023-02-02T12:49:58;50493.50;;;-142.97;27.09
8451;BME280;4262;50.980;13.892;2023-02-02T12:52:45;50446.72;;;-142.97;26.12
8451;BME280;4262;50.980;13.892;2023-02-02T12:55:20;50475.97;;;-142.97;26.15
8451;BME280;4262;50.980;13.892;2023-02-02T12:58:00;50481.81;;;-142.97;25.69
8451;BME280;4262;50.980;13.892;2023-02-02T13:03:37;50468.16;;;-142.97;25.52
8451;BME280;4262;50.980;13.892;2023-02-02T13:06:47;50481.81;;;-142.97;25.88
8451;BME280;4262;50.980;13.892;2023-02-02T13:09:23;50481.81;;;-142.97;24.75
8451;BME280;4262;50.980;13.892;2023-02-02T13:11:56;50509.09;;;-142.97;26.98
8451;BME280;4262;50.980;13.892;2023-02-02T13:14:29;50503.25;;;-142.97;27.48
8451;BME280;4262;50.980;13.892;2023-02-02T13:17:00;50483.75;;;-142.97;26.78
8451;BME280;4262;50.980;13.892;2023-02-02T13:19:33;50528.59;;;-142.97;27.25
8451;BME280;4262;50.980;13.892;2023-02-02T13:22:05;50489.63;;;-142.97;26.61
8451;BME280;4262;50.980;13.892;2023-02-02T13:24:36;50485.72;;;-142.97;26.74
8451;BME280;4262;50.980;13.892;2023-02-02T13:27:06;50507.16;;;-142.97;27.11
8451;BME280;4262;50.980;13.892;2023-02-02T13:29:40;50499.34;;;-142.97;26.36
8451;BME280;4262;50.980;13.892;2023-02-02T13:32:14;50378.47;;;-142.97;25.50
8451;BME280;4262;50.980;13.892;2023-02-02T13:34:46;50388.22;;;-142.97;26.13
8451;BME280;4262;50.980;13.892;2023-02-02T13:37:19;50458.41;;;-142.97;25.69
8451;BME280;4262;50.980;13.892;2023-02-02T13:39:53;50485.72;;;-142.97;25.62
8451;BME280;4262;50.980;13.892;2023-02-02T13:42:28;50474.00;;;-142.97;24.84
8451;BME280;4262;50.980;13.892;2023-02-02T13:45:02;50378.47;;;-142.97;25.31
8451;BME280;4262;50.980;13.892;2023-02-02T13:47:36;50524.72;;;-142.97;26.06
8451;BME280;4262;50.980;13.892;2023-02-02T13:50:09;50479.88;;;-142.97;25.95
8451;BME280;4262;50.980;13.892;2023-02-02T13:52:53;50503.25;;;-142.97;25.56
8451;BME280;4262;50.980;13.892;2023-02-02T13:55:36;50479.88;;;-142.97;25.08
8451;BME280;4262;50.980;13.892;2023-02-02T13:58:23;50485.72;;;-142.97;25.70
8451;BME280;4262;50.980;13.892;2023-02-02T14:00:59;50454.50;;;-142.97;25.50
8451;BME280;4262;50.980;13.892;2023-02-02T14:03:34;50499.34;;;-142.97;27.05
8451;BME280;4262;50.980;13.892;2023-02-02T14:06:06;50448.66;;;-142.97;27.31
8451;BME280;4262;50.980;13.892;2023-02-02T14:08:36;50503.25;;;-142.97;27.43
8451;BME280;4262;50.980;13.892;2023-02-02T14:11:17;50493.50;;;-142.97;25.64
8451;BME280;4262;50.980;13.892;2023-02-02T14:13:49;50495.47;;;-142.97;26.02
8451;BME280;4262;50.980;13.892;2023-02-02T14:16:46;50495.47;;;-142.97;25.76
8451;BME280;4262;50.980;13.892;2023-02-02T14:19:15;50475.97;;;-142.97;25.93
8451;BME280;4262;50.980;13.892;2023-02-02T14:21:59;50497.41;;;-142.97;26.41
8451;BME280;4262;50.980;13.892;2023-02-02T14:24:45;50509.09;;;-142.97;26.12
8451;BME280;4262;50.980;13.892;2023-02-02T14:30:32;50520.81;;;-142.97;27.24
8451;BME280;4262;50.980;13.892;2023-02-02T14:33:22;50474.00;;;-142.97;27.21
8451;BME280;4262;50.980;13.892;2023-02-02T14:36:00;50466.22;;;-142.97;26.34
8451;BME280;4262;50.980;13.892;2023-02-02T14:39:02;50497.41;;;-142.97;26.85
8451;BME280;4262;50.980;13.892;2023-02-02T14:41:46;50509.09;;;-142.97;26.69
8451;BME280;4262;50.980;13.892;2023-02-02T14:44:34;50493.50;;;-142.97;26.37
8451;BME280;4262;50.980;13.892;2023-02-02T14:47:03;50495.47;;;-142.97;26.69
8451;BME280;4262;50.980;13.892;2023-02-02T14:49:54;50464.25;;;-142.97;26.18
8451;BME280;4262;50.980;13.892;2023-02-02T14:52:23;50518.84;;;-142.97;26.53
8451;BME280;4262;50.980;13.892;2023-02-02T14:54:50;50493.50;;;-142.97;26.67
8451;BME280;4262;50.980;13.892;2023-02-02T14:57:22;50518.84;;;-142.97;27.28
8451;BME280;4262;50.980;13.892;2023-02-02T14:59:52;50509.09;;;-142.97;26.96
8451;BME280;4262;50.980;13.892;2023-02-02T15:02:22;50489.63;;;-142.97;26.26
8451;BME280;4262;50.980;13.892;2023-02-02T15:04:50;50497.41;;;-142.97;26.69
8451;BME280;4262;50.980;13.892;2023-02-02T15:10:11;50483.75;;;-142.97;26.29
8451;BME280;4262;50.980;13.892;2023-02-02T15:13:03;50489.63;;;-142.97;28.19
8451;BME280;4262;50.980;13.892;2023-02-02T15:15:33;50472.06;;;-142.97;27.21
8451;BME280;4262;50.980;13.892;2023-02-02T15:18:05;50477.91;;;-142.97;28.30
8451;BME280;4262;50.980;13.892;2023-02-02T15:20:40;50513.00;;;-142.97;27.77
8451;BME280;4262;50.980;13.892;2023-02-02T15:23:20;50487.66;;;-142.97;26.67
8451;BME280;4262;50.980;13.892;2023-02-02T15:25:52;50472.06;;;-142.97;26.07
8451;BME280;4262;50.980;13.892;2023-02-02T15:28:24;50491.56;;;-142.97;25.57
8451;BME280;4262;50.980;13.892;2023-02-02T15:30:59;50487.66;;;-142.97;26.01
8451;BME280;4262;50.980;13.892;2023-02-02T15:33:29;50470.13;;;-142.97;25.79
8451;BME280;4262;50.980;13.892;2023-02-02T15:36:02;50513.00;;;-142.97;26.10
8451;BME280;4262;50.980;13.892;2023-02-02T15:38:32;50475.97;;;-142.97;25.36
8451;BME280;4262;50.980;13.892;2023-02-02T15:41:06;50501.31;;;-142.97;24.92
8451;BME280;4262;50.980;13.892;2023-02-02T15:43:41;50454.50;;;-142.97;25.22
8451;BME280;4262;50.980;13.892;2023-02-02T15:46:11;50462.31;;;-142.97;25.59
8451;BME280;4262;50.980;13.892;2023-02-02T15:48:38;50485.72;;;-142.97;25.46
8451;BME280;4262;50.980;13.892;2023-02-02T15:51:13;50464.25;;;-142.97;25.26
8451;BME280;4262;50.980;13.892;2023-02-02T15:53:47;50497.41;;;-142.97;24.83
8451;BME280;4262;50.980;13.892;2023-02-02T15:56:19;50503.25;;;-142.97;24.39
8451;BME280;4262;50.980;13.892;2023-02-02T15:58:51;50485.72;;;-142.97;25.69
8451;BME280;4262;50.980;13.892;2023-02-02T16:01:19;50466.22;;;-142.97;26.97
8451;BME280;4262;50.980;13.892;2023-02-02T16:03:50;50485.72;;;-142.97;25.90
8451;BME280;4262;50.980;13.892;2023-02-02T16:06:20;50464.25;;;-142.97;24.97
8451;BME280;4262;50.980;13.892;2023-02-02T16:08:48;50483.75;;;-142.97;24.95
8451;BME280;4262;50.980;13.892;2023-02-02T16:11:16;50479.88;;;-142.97;25.40
8451;BME280;4262;50.980;13.892;2023-02-02T16:13:57;50514.97;;;-142.97;26.24
8451;BME280;4262;50.980;13.892;2023-02-02T16:16:27;50499.34;;;-142.97;25.59
8451;BME280;4262;50.980;13.892;2023-02-02T16:19:05;50477.91;;;-142.97;25.40
8451;BME280;4262;50.980;13.892;2023-02-02T16:21:39;50485.72;;;-142.97;24.84
8451;BME280;4262;50.980;13.892;2023-02-02T16:24:11;50474.00;;;-142.97;24.91
8451;BME280;4262;50.980;13.892;2023-02-02T16:26:40;50495.47;;;-142.97;24.91
8451;BME280;4262;50.980;13.892;2023-02-02T16:29:11;50464.25;;;-142.97;24.49
8451;BME280;4262;50.980;13.892;2023-02-02T16:31:42;50479.88;;;-142.97;25.31
8451;BME280;4262;50.980;13.892;2023-02-02T16:34:14;50493.50;;;-142.97;25.57
8451;BME280;4262;50.980;13.892;2023-02-02T16:36:41;50472.06;;;-142.97;26.73
8451;BME280;4262;50.980;13.892;2023-02-02T16:39:14;50470.13;;;-142.97;26.48
8451;BME280;4262;50.980;13.892;2023-02-02T16:41:41;50462.31;;;-142.97;27.35
8451;BME280;4262;50.980;13.892;2023-02-02T16:44:38;50479.88;;;-142.97;27.79
8451;BME280;4262;50.980;13.892;2023-02-02T16:47:32;50493.50;;;-142.97;28.47
8451;BME280;4262;50.980;13.892;2023-02-02T16:50:21;50497.41;;;-142.97;27.47
8451;BME280;4262;50.980;13.892;2023-02-02T16:52:52;50479.88;;;-142.97;26.70
8451;BME280;4262;50.980;13.892;2023-02-02T16:55:21;50485.72;;;-142.97;26.25
8451;BME280;4262;50.980;13.892;2023-02-02T16:57:49;50503.25;;;-142.97;26.22
8451;BME280;4262;50.980;13.892;2023-02-02T17:00:20;50462.31;;;-142.97;25.76
8451;BME280;4262;50.980;13.892;2023-02-02T17:02:49;50462.31;;;-142.97;25.81
8451;BME280;4262;50.980;13.892;2023-02-02T17:05:20;50468.16;;;-142.97;24.92
8451;BME280;4262;50.980;13.892;2023-02-02T17:07:49;50474.00;;;-142.97;24.56
8451;BME280;4262;50.980;13.892;2023-02-02T17:10:24;50503.25;;;-142.97;25.91
8451;BME280;4262;50.980;13.892;2023-02-02T17:12:56;50454.50;;;-142.97;25.50
8451;BME280;4262;50.980;13.892;2023-02-02T17:15:28;50472.06;;;-142.97;24.55
8451;BME280;4262;50.980;13.892;2023-02-02T17:17:56;50458.41;;;-142.97;24.57
8451;BME280;4262;50.980;13.892;2023-02-02T17:20:23;50481.81;;;-142.97;24.28
8451;BME280;4262;50.980;13.892;2023-02-02T17:22:54;50485.72;;;-142.97;24.16
8451;BME280;4262;50.980;13.892;2023-02-02T17:25:28;50466.22;;;-142.97;24.14
8451;BME280;4262;50.980;13.892;2023-02-02T17:27:57;50481.81;;;-142.97;24.90
8451;BME280;4262;50.980;13.892;2023-02-02T17:30:27;50479.88;;;-142.97;24.48
8451;BME280;4262;50.980;13.892;2023-02-02T17:32:56;50460.38;;;-142.97;24.67
8451;BME280;4262;50.980;13.892;2023-02-02T17:35:25;50474.00;;;-142.97;25.42
8451;BME280;4262;50.980;13.892;2023-02-02T17:37:52;50460.38;;;-142.97;25.54
8451;BME280;4262;50.980;13.892;2023-02-02T17:40:20;50481.81;;;-142.97;25.13
8451;BME280;4262;50.980;13.892;2023-02-02T17:42:49;50472.06;;;-142.97;24.75
8451;BME280;4262;50.980;13.892;2023-02-02T17:45:19;50458.41;;;-142.97;24.96
8451;BME280;4262;50.980;13.892;2023-02-02T17:47:47;50483.75;;;-142.97;24.14
8451;BME280;4262;50.980;13.892;2023-02-02T17:50:16;50472.06;;;-142.97;24.31
8451;BME280;4262;50.980;13.892;2023-02-02T17:52:43;50450.63;;;-142.97;24.17
8451;BME280;4262;50.980;13.892;2023-02-02T17:55:12;50468.16;;;-142.97;24.19